sensor_id;sensor_type;location;lat;lon;timestamp;P1;durP1;ratioP1;P2;durP2;ratioP2
75993;SDS011;64680;53.800;9.988;2023-07-20T00:01:46;5.00;;;3.17;;
75993;SDS011;64680;53.800;9.988;2023-07-20T00:04:12;4.57;;;2.97;;
75993;SDS011;64680;53.800;9.988;2023-07-20T00:06:38;3.15;;;2.00;;
75993;SDS011;64680;53.800;9.988;2023-07-20T00:09:06;3.13;;;2.60;;
75993;SDS011;64680;53.800;9.988;2023-07-20T00:11:35;3.00;;;2.50;;
75993;SDS011;64680;53.800;9.988;2023-07-20T00:14:02;3.72;;;2.40;;
75993;SDS011;64680;53.800;9.988;2023-07-20T00:16:28;4.95;;;3.00;;
75993;SDS011;64680;53.800;9.988;2023-07-20T00:18:53;3.33;;;2.35;;
75993;SDS011;64680;53.800;9.988;2023-07-20T00:21:19;2.47;;;2.17;;
75993;SDS011;64680;53.800;9.988;2023-07-20T00:23:45;3.85;;;2.50;;
75993;SDS011;64680;53.800;9.988;2023-07-20T00:26:10;3.78;;;3.08;;
75993;SDS011;64680;53.800;9.988;2023-07-20T00:28:36;4.65;;;3.47;;
75993;SDS011;64680;53.800;9.988;2023-07-20T00:31:01;3.40;;;2.97;;
75993;SDS011;64680;53.800;9.988;2023-07-20T00:33:27;5.88;;;4.63;;
75993;SDS011;64680;53.800;9.988;2023-07-20T00:35:53;5.35;;;4.47;;
75993;SDS011;64680;53.800;9.988;2023-07-20T00:38:19;5.35;;;3.95;;
75993;SDS011;64680;53.800;9.988;2023-07-20T00:40:45;6.05;;;3.90;;
75993;SDS011;64680;53.800;9.988;2023-07-20T00:43:11;4.45;;;3.78;;
75993;SDS011;64680;53.800;9.988;2023-07-20T00:45:36;6.43;;;4.63;;
75993;SDS011;64680;53.800;9.988;2023-07-20T00:48:03;4.75;;;3.15;;
75993;SDS011;64680;53.800;9.988;2023-07-20T00:52:57;6.53;;;4.13;;
75993;SDS011;64680;53.800;9.988;2023-07-20T00:55:23;7.07;;;3.95;;
75993;SDS011;64680;53.800;9.988;2023-07-20T00:57:50;5.60;;;4.22;;
75993;SDS011;64680;53.800;9.988;2023-07-20T01:00:16;4.53;;;2.97;;
75993;SDS011;64680;53.800;9.988;2023-07-20T01:02:43;6.82;;;4.82;;
75993;SDS011;64680;53.800;9.988;2023-07-20T01:05:08;5.35;;;4.20;;
75993;SDS011;64680;53.800;9.988;2023-07-20T01:07:41;6.13;;;4.25;;
75993;SDS011;64680;53.800;9.988;2023-07-20T01:10:18;5.65;;;4.20;;
75993;SDS011;64680;53.800;9.988;2023-07-20T01:12:53;4.97;;;4.10;;
75993;SDS011;64680;53.800;9.988;2023-07-20T01:15:20;5.45;;;4.22;;
75993;SDS011;64680;53.800;9.988;2023-07-20T01:17:45;7.60;;;4.78;;
75993;SDS011;64680;53.800;9.988;2023-07-20T01:20:12;5.95;;;4.50;;
75993;SDS011;64680;53.800;9.988;2023-07-20T01:22:49;7.35;;;4.65;;
75993;SDS011;64680;53.800;9.988;2023-07-20T01:30:56;6.72;;;5.57;;
75993;SDS011;64680;53.800;9.988;2023-07-20T01:33:28;5.80;;;4.22;;
75993;SDS011;64680;53.800;9.988;2023-07-20T01:35:56;6.65;;;4.40;;
75993;SDS011;64680;53.800;9.988;2023-07-20T01:38:24;5.85;;;4.15;;
75993;SDS011;64680;53.800;9.988;2023-07-20T01:40:51;6.65;;;4.82;;
75993;SDS011;64680;53.800;9.988;2023-07-20T01:43:17;11.05;;;6.57;;
75993;SDS011;64680;53.800;9.988;2023-07-20T01:45:43;6.22;;;4.70;;
75993;SDS011;64680;53.800;9.988;2023-07-20T01:48:09;6.68;;;4.57;;
75993;SDS011;64680;53.800;9.988;2023-07-20T01:50:35;5.43;;;4.13;;
75993;SDS011;64680;53.800;9.988;2023-07-20T01:53:04;6.82;;;4.40;;
75993;SDS011;64680;53.800;9.988;2023-07-20T01:55:29;6.65;;;4.45;;
75993;SDS011;64680;53.800;9.988;2023-07-20T01:57:55;6.50;;;5.13;;
75993;SDS011;64680;53.800;9.988;2023-07-20T02:00:21;5.07;;;3.88;;
75993;SDS011;64680;53.800;9.988;2023-07-20T02:05:14;4.65;;;3.55;;
75993;SDS011;64680;53.800;9.988;2023-07-20T02:07:40;5.85;;;4.47;;
75993;SDS011;64680;53.800;9.988;2023-07-20T02:10:06;5.72;;;4.70;;
75993;SDS011;64680;53.800;9.988;2023-07-20T02:12:32;7.95;;;4.38;;
75993;SDS011;64680;53.800;9.988;2023-07-20T02:14:57;5.93;;;4.40;;
75993;SDS011;64680;53.800;9.988;2023-07-20T02:17:23;6.47;;;5.38;;
75993;SDS011;64680;53.800;9.988;2023-07-20T02:19:55;6.13;;;4.78;;
75993;SDS011;64680;53.800;9.988;2023-07-20T02:22:22;5.28;;;4.25;;
75993;SDS011;64680;53.800;9.988;2023-07-20T02:24:48;5.25;;;4.28;;
75993;SDS011;64680;53.800;9.988;2023-07-20T02:27:15;9.40;;;6.80;;
75993;SDS011;64680;53.800;9.988;2023-07-20T02:29:41;10.32;;;6.57;;
75993;SDS011;64680;53.800;9.988;2023-07-20T02:32:07;9.82;;;6.10;;
75993;SDS011;64680;53.800;9.988;2023-07-20T02:34:34;7.78;;;5.20;;
75993;SDS011;64680;53.800;9.988;2023-07-20T02:37:00;6.15;;;4.60;;
75993;SDS011;64680;53.800;9.988;2023-07-20T02:39:29;7.03;;;5.18;;
75993;SDS011;64680;53.800;9.988;2023-07-20T02:41:55;7.88;;;6.03;;
75993;SDS011;64680;53.800;9.988;2023-07-20T02:44:21;6.60;;;4.80;;
75993;SDS011;64680;53.800;9.988;2023-07-20T02:46:47;7.20;;;5.47;;
75993;SDS011;64680;53.800;9.988;2023-07-20T02:49:14;10.57;;;6.53;;
75993;SDS011;64680;53.800;9.988;2023-07-20T02:51:40;6.75;;;5.05;;
75993;SDS011;64680;53.800;9.988;2023-07-20T02:54:06;10.60;;;6.90;;
75993;SDS011;64680;53.800;9.988;2023-07-20T02:56:32;7.60;;;6.70;;
75993;SDS011;64680;53.800;9.988;2023-07-20T02:58:57;7.35;;;4.88;;
75993;SDS011;64680;53.800;9.988;2023-07-20T03:01:23;8.95;;;6.00;;
75993;SDS011;64680;53.800;9.988;2023-07-20T03:03:48;8.75;;;6.15;;
75993;SDS011;64680;53.800;9.988;2023-07-20T03:06:15;8.75;;;6.05;;
75993;SDS011;64680;53.800;9.988;2023-07-20T03:08:42;7.80;;;5.72;;
75993;SDS011;64680;53.800;9.988;2023-07-20T03:11:15;9.23;;;6.53;;
75993;SDS011;64680;53.800;9.988;2023-07-20T03:13:41;6.75;;;5.30;;
75993;SDS011;64680;53.800;9.988;2023-07-20T03:16:08;8.38;;;6.15;;
75993;SDS011;64680;53.800;9.988;2023-07-20T03:18:38;10.70;;;7.18;;
75993;SDS011;64680;53.800;9.988;2023-07-20T03:21:04;12.13;;;8.18;;
75993;SDS011;64680;53.800;9.988;2023-07-20T03:23:31;9.40;;;6.05;;
75993;SDS011;64680;53.800;9.988;2023-07-20T03:25:57;11.27;;;6.72;;
75993;SDS011;64680;53.800;9.988;2023-07-20T03:28:22;9.85;;;7.10;;
75993;SDS011;64680;53.800;9.988;2023-07-20T03:30:55;13.02;;;8.27;;
75993;SDS011;64680;53.800;9.988;2023-07-20T03:33:30;14.48;;;8.68;;
75993;SDS011;64680;53.800;9.988;2023-07-20T03:35:57;11.38;;;8.20;;
75993;SDS011;64680;53.800;9.988;2023-07-20T03:38:23;9.40;;;7.13;;
75993;SDS011;64680;53.800;9.988;2023-07-20T03:40:50;12.77;;;8.57;;
75993;SDS011;64680;53.800;9.988;2023-07-20T03:43:20;12.52;;;7.95;;
75993;SDS011;64680;53.800;9.988;2023-07-20T03:45:47;11.18;;;8.02;;
75993;SDS011;64680;53.800;9.988;2023-07-20T03:48:16;14.02;;;8.95;;
75993;SDS011;64680;53.800;9.988;2023-07-20T03:50:46;13.00;;;8.23;;
75993;SDS011;64680;53.800;9.988;2023-07-20T03:53:13;14.77;;;10.30;;
75993;SDS011;64680;53.800;9.988;2023-07-20T03:55:40;17.83;;;10.88;;
75993;SDS011;64680;53.800;9.988;2023-07-20T03:58:06;13.55;;;8.90;;
75993;SDS011;64680;53.800;9.988;2023-07-20T04:00:32;17.40;;;10.65;;
75993;SDS011;64680;53.800;9.988;2023-07-20T04:02:59;19.85;;;10.43;;
75993;SDS011;64680;53.800;9.988;2023-07-20T04:05:25;14.40;;;9.60;;
75993;SDS011;64680;53.800;9.988;2023-07-20T04:07:51;16.80;;;11.02;;
75993;SDS011;64680;53.800;9.988;2023-07-20T04:10:17;17.92;;;11.30;;
75993;SDS011;64680;53.800;9.988;2023-07-20T04:12:43;12.95;;;9.02;;
75993;SDS011;64680;53.800;9.988;2023-07-20T04:15:09;13.55;;;9.93;;
75993;SDS011;64680;53.800;9.988;2023-07-20T04:17:35;13.30;;;9.40;;
75993;SDS011;64680;53.800;9.988;2023-07-20T04:20:01;13.57;;;9.55;;
75993;SDS011;64680;53.800;9.988;2023-07-20T04:22:27;13.05;;;8.90;;
75993;SDS011;64680;53.800;9.988;2023-07-20T04:24:53;14.07;;;9.13;;
75993;SDS011;64680;53.800;9.988;2023-07-20T04:27:19;11.35;;;8.27;;
75993;SDS011;64680;53.800;9.988;2023-07-20T04:29:44;10.95;;;8.02;;
75993;SDS011;64680;53.800;9.988;2023-07-20T04:32:10;14.38;;;9.93;;
75993;SDS011;64680;53.800;9.988;2023-07-20T04:34:36;9.57;;;7.55;;
75993;SDS011;64680;53.800;9.988;2023-07-20T04:37:02;10.73;;;9.10;;
75993;SDS011;64680;53.800;9.988;2023-07-20T04:39:30;10.02;;;6.90;;
75993;SDS011;64680;53.800;9.988;2023-07-20T04:41:56;12.63;;;8.55;;
75993;SDS011;64680;53.800;9.988;2023-07-20T04:44:22;9.50;;;7.22;;
75993;SDS011;64680;53.800;9.988;2023-07-20T04:46:48;12.65;;;7.63;;
75993;SDS011;64680;53.800;9.988;2023-07-20T04:49:14;16.65;;;10.88;;
75993;SDS011;64680;53.800;9.988;2023-07-20T04:51:40;10.48;;;6.82;;
75993;SDS011;64680;53.800;9.988;2023-07-20T04:54:05;9.05;;;6.75;;
75993;SDS011;64680;53.800;9.988;2023-07-20T04:56:31;7.32;;;5.90;;
75993;SDS011;64680;53.800;9.988;2023-07-20T04:58:57;8.73;;;6.13;;
75993;SDS011;64680;53.800;9.988;2023-07-20T05:01:23;7.13;;;5.35;;
75993;SDS011;64680;53.800;9.988;2023-07-20T05:03:48;6.20;;;5.60;;
75993;SDS011;64680;53.800;9.988;2023-07-20T05:06:14;5.45;;;4.32;;
75993;SDS011;64680;53.800;9.988;2023-07-20T05:08:40;5.70;;;4.85;;
75993;SDS011;64680;53.800;9.988;2023-07-20T05:11:06;4.00;;;3.55;;
75993;SDS011;64680;53.800;9.988;2023-07-20T05:13:32;3.90;;;2.95;;
75993;SDS011;64680;53.800;9.988;2023-07-20T05:15:58;4.38;;;3.10;;
75993;SDS011;64680;53.800;9.988;2023-07-20T05:18:24;4.72;;;2.42;;
75993;SDS011;64680;53.800;9.988;2023-07-20T05:20:50;2.97;;;2.00;;
75993;SDS011;64680;53.800;9.988;2023-07-20T05:23:19;4.65;;;2.42;;
75993;SDS011;64680;53.800;9.988;2023-07-20T05:25:45;2.50;;;1.75;;
75993;SDS011;64680;53.800;9.988;2023-07-20T05:28:10;4.05;;;2.30;;
75993;SDS011;64680;53.800;9.988;2023-07-20T05:30:36;3.42;;;2.80;;
75993;SDS011;64680;53.800;9.988;2023-07-20T05:33:02;4.15;;;2.25;;
75993;SDS011;64680;53.800;9.988;2023-07-20T05:35:28;3.38;;;2.15;;
75993;SDS011;64680;53.800;9.988;2023-07-20T05:37:54;4.00;;;2.25;;
75993;SDS011;64680;53.800;9.988;2023-07-20T05:40:19;3.72;;;2.40;;
75993;SDS011;64680;53.800;9.988;2023-07-20T05:45:14;2.63;;;2.33;;
75993;SDS011;64680;53.800;9.988;2023-07-20T05:47:41;2.92;;;2.33;;
75993;SDS011;64680;53.800;9.988;2023-07-20T05:50:07;3.35;;;2.17;;
75993;SDS011;64680;53.800;9.988;2023-07-20T05:52:33;4.00;;;2.30;;
75993;SDS011;64680;53.800;9.988;2023-07-20T05:54:58;3.63;;;1.77;;
75993;SDS011;64680;53.800;9.988;2023-07-20T05:57:24;3.90;;;1.73;;
75993;SDS011;64680;53.800;9.988;2023-07-20T05:59:49;2.83;;;1.80;;
75993;SDS011;64680;53.800;9.988;2023-07-20T06:02:15;1.92;;;1.30;;
75993;SDS011;64680;53.800;9.988;2023-07-20T06:04:41;1.98;;;1.40;;
75993;SDS011;64680;53.800;9.988;2023-07-20T06:07:07;3.50;;;1.30;;
75993;SDS011;64680;53.800;9.988;2023-07-20T06:09:33;3.60;;;1.90;;
75993;SDS011;64680;53.800;9.988;2023-07-20T06:11:59;2.67;;;1.50;;
75993;SDS011;64680;53.800;9.988;2023-07-20T06:14:25;2.38;;;0.93;;
75993;SDS011;64680;53.800;9.988;2023-07-20T06:16:50;3.58;;;1.20;;
75993;SDS011;64680;53.800;9.988;2023-07-20T06:19:16;1.60;;;0.90;;
75993;SDS011;64680;53.800;9.988;2023-07-20T06:21:42;3.03;;;0.50;;
75993;SDS011;64680;53.800;9.988;2023-07-20T06:24:07;1.25;;;0.70;;
75993;SDS011;64680;53.800;9.988;2023-07-20T06:26:33;4.45;;;0.90;;
75993;SDS011;64680;53.800;9.988;2023-07-20T06:29:04;1.13;;;0.55;;
75993;SDS011;64680;53.800;9.988;2023-07-20T06:31:31;1.20;;;0.55;;
75993;SDS011;64680;53.800;9.988;2023-07-20T06:33:58;1.58;;;0.50;;
75993;SDS011;64680;53.800;9.988;2023-07-20T06:36:23;1.50;;;0.70;;
75993;SDS011;64680;53.800;9.988;2023-07-20T06:38:51;2.03;;;0.47;;
75993;SDS011;64680;53.800;9.988;2023-07-20T06:41:16;2.65;;;0.40;;
75993;SDS011;64680;53.800;9.988;2023-07-20T06:43:43;1.45;;;0.50;;
75993;SDS011;64680;53.800;9.988;2023-07-20T06:46:08;2.33;;;0.65;;
75993;SDS011;64680;53.800;9.988;2023-07-20T06:48:34;1.13;;;0.70;;
75993;SDS011;64680;53.800;9.988;2023-07-20T06:50:59;2.40;;;0.95;;
75993;SDS011;64680;53.800;9.988;2023-07-20T06:53:25;1.38;;;0.90;;
75993;SDS011;64680;53.800;9.988;2023-07-20T06:55:50;2.30;;;0.65;;
75993;SDS011;64680;53.800;9.988;2023-07-20T06:58:16;2.50;;;0.70;;
75993;SDS011;64680;53.800;9.988;2023-07-20T07:00:43;4.90;;;0.95;;
75993;SDS011;64680;53.800;9.988;2023-07-20T07:03:09;2.22;;;0.70;;
75993;SDS011;64680;53.800;9.988;2023-07-20T07:05:36;2.05;;;0.70;;
75993;SDS011;64680;53.800;9.988;2023-07-20T07:08:02;3.92;;;0.80;;
75993;SDS011;64680;53.800;9.988;2023-07-20T07:10:29;1.33;;;0.60;;
75993;SDS011;64680;53.800;9.988;2023-07-20T07:12:55;2.75;;;0.60;;
75993;SDS011;64680;53.800;9.988;2023-07-20T07:15:20;2.40;;;0.70;;
75993;SDS011;64680;53.800;9.988;2023-07-20T07:17:46;2.17;;;1.02;;
75993;SDS011;64680;53.800;9.988;2023-07-20T07:20:11;2.17;;;0.98;;
75993;SDS011;64680;53.800;9.988;2023-07-20T07:22:37;5.07;;;1.00;;
75993;SDS011;64680;53.800;9.988;2023-07-20T07:25:03;3.17;;;1.10;;
75993;SDS011;64680;53.800;9.988;2023-07-20T07:27:28;4.32;;;1.33;;
75993;SDS011;64680;53.800;9.988;2023-07-20T07:29:54;3.17;;;1.20;;
75993;SDS011;64680;53.800;9.988;2023-07-20T07:32:20;2.78;;;0.80;;
75993;SDS011;64680;53.800;9.988;2023-07-20T07:34:46;4.78;;;1.58;;
75993;SDS011;64680;53.800;9.988;2023-07-20T07:37:12;5.60;;;1.88;;
75993;SDS011;64680;53.800;9.988;2023-07-20T07:39:38;3.05;;;1.13;;
75993;SDS011;64680;53.800;9.988;2023-07-20T07:42:04;3.30;;;1.00;;
75993;SDS011;64680;53.800;9.988;2023-07-20T07:44:30;5.30;;;1.27;;
75993;SDS011;64680;53.800;9.988;2023-07-20T07:46:56;4.38;;;1.00;;
75993;SDS011;64680;53.800;9.988;2023-07-20T07:49:21;6.07;;;1.20;;
75993;SDS011;64680;53.800;9.988;2023-07-20T07:51:47;4.75;;;1.23;;
75993;SDS011;64680;53.800;9.988;2023-07-20T07:54:13;3.40;;;1.20;;
75993;SDS011;64680;53.800;9.988;2023-07-20T07:56:39;2.70;;;1.13;;
75993;SDS011;64680;53.800;9.988;2023-07-20T07:59:05;4.65;;;1.35;;
75993;SDS011;64680;53.800;9.988;2023-07-20T08:01:31;3.92;;;1.35;;
75993;SDS011;64680;53.800;9.988;2023-07-20T08:03:57;5.70;;;1.90;;
75993;SDS011;64680;53.800;9.988;2023-07-20T08:06:23;4.88;;;1.52;;
75993;SDS011;64680;53.800;9.988;2023-07-20T08:08:51;9.05;;;1.80;;
75993;SDS011;64680;53.800;9.988;2023-07-20T08:11:17;9.18;;;2.42;;
75993;SDS011;64680;53.800;9.988;2023-07-20T08:13:43;5.68;;;1.80;;
75993;SDS011;64680;53.800;9.988;2023-07-20T08:16:09;6.20;;;2.42;;
75993;SDS011;64680;53.800;9.988;2023-07-20T08:18:34;5.72;;;2.42;;
75993;SDS011;64680;53.800;9.988;2023-07-20T08:21:00;5.25;;;1.88;;
75993;SDS011;64680;53.800;9.988;2023-07-20T08:23:26;6.97;;;2.75;;
75993;SDS011;64680;53.800;9.988;2023-07-20T08:25:52;9.32;;;2.65;;
75993;SDS011;64680;53.800;9.988;2023-07-20T08:28:18;8.38;;;3.08;;
75993;SDS011;64680;53.800;9.988;2023-07-20T08:30:45;5.82;;;1.98;;
75993;SDS011;64680;53.800;9.988;2023-07-20T08:33:15;7.97;;;2.45;;
75993;SDS011;64680;53.800;9.988;2023-07-20T08:35:43;5.72;;;2.00;;
75993;SDS011;64680;53.800;9.988;2023-07-20T08:38:09;5.30;;;1.75;;
75993;SDS011;64680;53.800;9.988;2023-07-20T08:40:39;5.32;;;1.48;;
75993;SDS011;64680;53.800;9.988;2023-07-20T08:43:10;6.57;;;1.30;;
75993;SDS011;64680;53.800;9.988;2023-07-20T08:45:38;6.28;;;1.40;;
75993;SDS011;64680;53.800;9.988;2023-07-20T08:48:08;6.88;;;1.58;;
75993;SDS011;64680;53.800;9.988;2023-07-20T08:50:35;3.38;;;1.23;;
75993;SDS011;64680;53.800;9.988;2023-07-20T08:53:01;3.08;;;0.90;;
75993;SDS011;64680;53.800;9.988;2023-07-20T08:55:28;3.35;;;0.70;;
75993;SDS011;64680;53.800;9.988;2023-07-20T08:57:54;3.80;;;0.95;;
75993;SDS011;64680;53.800;9.988;2023-07-20T09:00:24;2.67;;;0.70;;
75993;SDS011;64680;53.800;9.988;2023-07-20T09:02:52;3.38;;;0.77;;
75993;SDS011;64680;53.800;9.988;2023-07-20T09:05:19;3.65;;;1.20;;
75993;SDS011;64680;53.800;9.988;2023-07-20T09:07:46;1.65;;;0.70;;
75993;SDS011;64680;53.800;9.988;2023-07-20T09:10:11;4.55;;;0.90;;
75993;SDS011;64680;53.800;9.988;2023-07-20T09:15:04;2.58;;;0.50;;
75993;SDS011;64680;53.800;9.988;2023-07-20T09:17:31;4.50;;;0.43;;
75993;SDS011;64680;53.800;9.988;2023-07-20T09:19:56;2.53;;;0.90;;
75993;SDS011;64680;53.800;9.988;2023-07-20T09:22:29;1.88;;;0.70;;
75993;SDS011;64680;53.800;9.988;2023-07-20T09:24:56;2.78;;;0.88;;
75993;SDS011;64680;53.800;9.988;2023-07-20T09:27:22;2.42;;;0.55;;
75993;SDS011;64680;53.800;9.988;2023-07-20T09:29:59;2.90;;;0.85;;
75993;SDS011;64680;53.800;9.988;2023-07-20T09:32:25;2.72;;;1.00;;
75993;SDS011;64680;53.800;9.988;2023-07-20T09:34:50;4.53;;;0.82;;
75993;SDS011;64680;53.800;9.988;2023-07-20T09:37:25;5.03;;;0.60;;
75993;SDS011;64680;53.800;9.988;2023-07-20T09:39:52;1.55;;;0.50;;
75993;SDS011;64680;53.800;9.988;2023-07-20T09:42:18;3.75;;;0.55;;
75993;SDS011;64680;53.800;9.988;2023-07-20T09:44:46;3.05;;;0.38;;
75993;SDS011;64680;53.800;9.988;2023-07-20T09:47:12;2.15;;;0.43;;
75993;SDS011;64680;53.800;9.988;2023-07-20T09:49:40;2.60;;;0.50;;
75993;SDS011;64680;53.800;9.988;2023-07-20T09:52:08;1.90;;;0.40;;
75993;SDS011;64680;53.800;9.988;2023-07-20T09:57:02;4.95;;;1.10;;
75993;SDS011;64680;53.800;9.988;2023-07-20T09:59:28;5.00;;;0.90;;
75993;SDS011;64680;53.800;9.988;2023-07-20T10:01:54;2.00;;;0.40;;
75993;SDS011;64680;53.800;9.988;2023-07-20T10:04:24;1.70;;;0.45;;
75993;SDS011;64680;53.800;9.988;2023-07-20T10:06:51;5.93;;;0.82;;
75993;SDS011;64680;53.800;9.988;2023-07-20T10:09:20;3.58;;;0.50;;
75993;SDS011;64680;53.800;9.988;2023-07-20T10:11:49;1.40;;;0.57;;
75993;SDS011;64680;53.800;9.988;2023-07-20T10:14:16;2.33;;;0.73;;
75993;SDS011;64680;53.800;9.988;2023-07-20T10:16:51;3.30;;;0.43;;
75993;SDS011;64680;53.800;9.988;2023-07-20T10:19:23;2.28;;;0.50;;
75993;SDS011;64680;53.800;9.988;2023-07-20T10:22:01;2.95;;;0.50;;
75993;SDS011;64680;53.800;9.988;2023-07-20T10:24:32;2.13;;;0.32;;
75993;SDS011;64680;53.800;9.988;2023-07-20T10:27:00;3.42;;;0.38;;
75993;SDS011;64680;53.800;9.988;2023-07-20T10:29:26;3.53;;;1.13;;
75993;SDS011;64680;53.800;9.988;2023-07-20T10:31:53;1.88;;;0.30;;
75993;SDS011;64680;53.800;9.988;2023-07-20T10:34:20;1.63;;;0.20;;
75993;SDS011;64680;53.800;9.988;2023-07-20T10:36:47;2.75;;;0.40;;
75993;SDS011;64680;53.800;9.988;2023-07-20T10:39:25;2.22;;;0.40;;
75993;SDS011;64680;53.800;9.988;2023-07-20T10:42:08;2.17;;;0.30;;
75993;SDS011;64680;53.800;9.988;2023-07-20T10:44:41;2.25;;;0.40;;
75993;SDS011;64680;53.800;9.988;2023-07-20T10:47:10;3.05;;;0.25;;
75993;SDS011;64680;53.800;9.988;2023-07-20T10:52:25;1.13;;;0.30;;
75993;SDS011;64680;53.800;9.988;2023-07-20T10:54:51;2.13;;;0.30;;
75993;SDS011;64680;53.800;9.988;2023-07-20T10:57:30;3.42;;;0.52;;
75993;SDS011;64680;53.800;9.988;2023-07-20T11:02:54;0.30;;;0.10;;
75993;SDS011;64680;53.800;9.988;2023-07-20T11:05:34;2.13;;;0.10;;
75993;SDS011;64680;53.800;9.988;2023-07-20T11:08:05;1.45;;;0.20;;
75993;SDS011;64680;53.800;9.988;2023-07-20T11:10:34;0.82;;;0.30;;
75993;SDS011;64680;53.800;9.988;2023-07-20T11:13:22;3.33;;;0.32;;
75993;SDS011;64680;53.800;9.988;2023-07-20T11:18:27;0.77;;;0.10;;
75993;SDS011;64680;53.800;9.988;2023-07-20T11:20:53;2.90;;;0.57;;
75993;SDS011;64680;53.800;9.988;2023-07-20T11:23:19;2.85;;;0.40;;
75993;SDS011;64680;53.800;9.988;2023-07-20T11:25:45;3.00;;;0.30;;
75993;SDS011;64680;53.800;9.988;2023-07-20T11:28:11;2.42;;;0.20;;
75993;SDS011;64680;53.800;9.988;2023-07-20T11:30:37;1.50;;;0.30;;
75993;SDS011;64680;53.800;9.988;2023-07-20T11:33:03;3.15;;;0.68;;
75993;SDS011;64680;53.800;9.988;2023-07-20T11:35:36;2.63;;;0.32;;
75993;SDS011;64680;53.800;9.988;2023-07-20T11:38:08;3.50;;;0.50;;
75993;SDS011;64680;53.800;9.988;2023-07-20T11:40:33;2.72;;;0.60;;
75993;SDS011;64680;53.800;9.988;2023-07-20T11:42:59;1.63;;;0.30;;
75993;SDS011;64680;53.800;9.988;2023-07-20T11:45:25;1.15;;;0.30;;
75993;SDS011;64680;53.800;9.988;2023-07-20T11:47:52;1.98;;;1.25;;
75993;SDS011;64680;53.800;9.988;2023-07-20T11:50:18;2.30;;;0.30;;
75993;SDS011;64680;53.800;9.988;2023-07-20T11:52:43;4.63;;;0.40;;
75993;SDS011;64680;53.800;9.988;2023-07-20T11:55:09;2.28;;;1.10;;
75993;SDS011;64680;53.800;9.988;2023-07-20T11:57:36;2.33;;;0.40;;
75993;SDS011;64680;53.800;9.988;2023-07-20T12:00:03;2.13;;;0.50;;
75993;SDS011;64680;53.800;9.988;2023-07-20T12:02:34;5.82;;;0.73;;
75993;SDS011;64680;53.800;9.988;2023-07-20T12:05:00;2.58;;;0.40;;
75993;SDS011;64680;53.800;9.988;2023-07-20T12:07:28;2.30;;;0.30;;
75993;SDS011;64680;53.800;9.988;2023-07-20T12:10:06;2.33;;;0.40;;
75993;SDS011;64680;53.800;9.988;2023-07-20T12:12:40;3.47;;;0.35;;
75993;SDS011;64680;53.800;9.988;2023-07-20T12:17:44;4.03;;;0.65;;
75993;SDS011;64680;53.800;9.988;2023-07-20T12:20:11;4.07;;;1.00;;
75993;SDS011;64680;53.800;9.988;2023-07-20T12:22:40;2.55;;;0.60;;
75993;SDS011;64680;53.800;9.988;2023-07-20T12:25:08;3.70;;;0.70;;
75993;SDS011;64680;53.800;9.988;2023-07-20T12:27:36;1.35;;;0.10;;
75993;SDS011;64680;53.800;9.988;2023-07-20T12:30:06;1.27;;;0.17;;
75993;SDS011;64680;53.800;9.988;2023-07-20T12:32:33;2.72;;;0.30;;
75993;SDS011;64680;53.800;9.988;2023-07-20T12:34:59;1.23;;;0.28;;
75993;SDS011;64680;53.800;9.988;2023-07-20T12:37:25;2.22;;;0.20;;
75993;SDS011;64680;53.800;9.988;2023-07-20T12:39:51;3.28;;;0.50;;
75993;SDS011;64680;53.800;9.988;2023-07-20T12:42:17;2.33;;;0.40;;
75993;SDS011;64680;53.800;9.988;2023-07-20T12:44:43;2.20;;;0.60;;
75993;SDS011;64680;53.800;9.988;2023-07-20T12:47:08;2.13;;;0.35;;
75993;SDS011;64680;53.800;9.988;2023-07-20T12:49:34;3.10;;;0.43;;
75993;SDS011;64680;53.800;9.988;2023-07-20T12:52:00;3.17;;;0.40;;
75993;SDS011;64680;53.800;9.988;2023-07-20T12:54:25;3.45;;;0.50;;
75993;SDS011;64680;53.800;9.988;2023-07-20T12:56:51;1.77;;;0.20;;
75993;SDS011;64680;53.800;9.988;2023-07-20T12:59:16;0.70;;;0.30;;
75993;SDS011;64680;53.800;9.988;2023-07-20T13:01:42;0.68;;;0.35;;
75993;SDS011;64680;53.800;9.988;2023-07-20T13:04:09;2.90;;;0.50;;
75993;SDS011;64680;53.800;9.988;2023-07-20T13:06:35;2.63;;;1.00;;
75993;SDS011;64680;53.800;9.988;2023-07-20T13:09:01;1.50;;;0.50;;
75993;SDS011;64680;53.800;9.988;2023-07-20T13:11:28;3.33;;;0.35;;
75993;SDS011;64680;53.800;9.988;2023-07-20T13:13:53;2.22;;;0.52;;
75993;SDS011;64680;53.800;9.988;2023-07-20T13:16:19;1.85;;;0.40;;
75993;SDS011;64680;53.800;9.988;2023-07-20T13:18:44;2.25;;;0.43;;
75993;SDS011;64680;53.800;9.988;2023-07-20T13:21:10;4.22;;;0.85;;
75993;SDS011;64680;53.800;9.988;2023-07-20T13:23:37;2.17;;;0.82;;
75993;SDS011;64680;53.800;9.988;2023-07-20T13:26:04;5.22;;;0.60;;
75993;SDS011;64680;53.800;9.988;2023-07-20T13:28:30;1.67;;;0.40;;
75993;SDS011;64680;53.800;9.988;2023-07-20T13:30:56;2.97;;;0.70;;
75993;SDS011;64680;53.800;9.988;2023-07-20T13:33:21;3.17;;;0.73;;
75993;SDS011;64680;53.800;9.988;2023-07-20T13:35:47;3.58;;;0.80;;
75993;SDS011;64680;53.800;9.988;2023-07-20T13:38:12;2.15;;;0.50;;
75993;SDS011;64680;53.800;9.988;2023-07-20T13:40:38;3.15;;;0.52;;
75993;SDS011;64680;53.800;9.988;2023-07-20T13:43:04;2.92;;;0.65;;
75993;SDS011;64680;53.800;9.988;2023-07-20T13:45:29;1.98;;;0.60;;
75993;SDS011;64680;53.800;9.988;2023-07-20T13:47:55;1.95;;;0.45;;
75993;SDS011;64680;53.800;9.988;2023-07-20T13:50:20;2.83;;;0.60;;
75993;SDS011;64680;53.800;9.988;2023-07-20T13:52:46;1.38;;;0.50;;
75993;SDS011;64680;53.800;9.988;2023-07-20T13:55:12;2.85;;;0.40;;
75993;SDS011;64680;53.800;9.988;2023-07-20T13:57:38;1.10;;;0.30;;
75993;SDS011;64680;53.800;9.988;2023-07-20T14:00:03;1.35;;;0.40;;
75993;SDS011;64680;53.800;9.988;2023-07-20T14:02:33;2.88;;;0.50;;
75993;SDS011;64680;53.800;9.988;2023-07-20T14:04:58;2.40;;;0.73;;
75993;SDS011;64680;53.800;9.988;2023-07-20T14:07:24;1.95;;;0.47;;
75993;SDS011;64680;53.800;9.988;2023-07-20T14:09:50;1.88;;;0.40;;
75993;SDS011;64680;53.800;9.988;2023-07-20T14:12:16;2.13;;;0.30;;
75993;SDS011;64680;53.800;9.988;2023-07-20T14:14:41;2.13;;;0.40;;
75993;SDS011;64680;53.800;9.988;2023-07-20T14:17:07;2.13;;;0.20;;
75993;SDS011;64680;53.800;9.988;2023-07-20T14:19:32;2.25;;;0.40;;
75993;SDS011;64680;53.800;9.988;2023-07-20T14:22:01;1.48;;;0.30;;
75993;SDS011;64680;53.800;9.988;2023-07-20T14:24:28;1.08;;;0.20;;
75993;SDS011;64680;53.800;9.988;2023-07-20T14:26:54;2.58;;;0.35;;
75993;SDS011;64680;53.800;9.988;2023-07-20T14:29:20;2.20;;;0.50;;
75993;SDS011;64680;53.800;9.988;2023-07-20T14:31:46;1.00;;;0.30;;
75993;SDS011;64680;53.800;9.988;2023-07-20T14:34:16;1.75;;;0.60;;
75993;SDS011;64680;53.800;9.988;2023-07-20T14:36:43;2.67;;;0.55;;
75993;SDS011;64680;53.800;9.988;2023-07-20T14:39:09;2.95;;;0.50;;
75993;SDS011;64680;53.800;9.988;2023-07-20T14:41:35;2.33;;;0.40;;
75993;SDS011;64680;53.800;9.988;2023-07-20T14:44:00;3.67;;;0.50;;
75993;SDS011;64680;53.800;9.988;2023-07-20T14:46:27;1.98;;;0.40;;
75993;SDS011;64680;53.800;9.988;2023-07-20T14:48:52;2.05;;;0.50;;
75993;SDS011;64680;53.800;9.988;2023-07-20T14:51:18;2.22;;;0.75;;
75993;SDS011;64680;53.800;9.988;2023-07-20T14:53:44;4.35;;;0.70;;
75993;SDS011;64680;53.800;9.988;2023-07-20T14:56:09;3.38;;;0.63;;
75993;SDS011;64680;53.800;9.988;2023-07-20T14:58:35;3.17;;;0.60;;
75993;SDS011;64680;53.800;9.988;2023-07-20T15:01:01;1.40;;;0.50;;
75993;SDS011;64680;53.800;9.988;2023-07-20T15:03:27;4.75;;;0.60;;
75993;SDS011;64680;53.800;9.988;2023-07-20T15:05:53;2.60;;;0.60;;
75993;SDS011;64680;53.800;9.988;2023-07-20T15:08:18;3.83;;;0.68;;
75993;SDS011;64680;53.800;9.988;2023-07-20T15:10:45;4.30;;;0.90;;
75993;SDS011;64680;53.800;9.988;2023-07-20T15:13:12;2.95;;;0.68;;